Terminal Aerodrome Forecast
Issued by NWS

Home | Current Version | Previous Version | Text Only | Print | Product List | Glossary On
Versions: 1 2 3 4 5 6 7 8 9 10 11 12 13 14 15 16 17 18 19 20 21 22 23 24 25 26 27 28
000
FTUS43 KDMX 291159 AAA
TAFOTM
TAF AMD
KOTM 291159Z 2912/3012 04007KT P6SM BKN007 OVC025
      TEMPO 2912/2914 5SM BR OVC007
     FM291500 05009KT P6SM BKN015
     FM292000 08090KT P6SM SCT015 BKN035
     FM292300 08012KT P6SM BKN080
     FM300900 06016G22KT 4SM -SHRA OVC012=

USA.gov is the U.S. government's official web portal to all federal, state and local government web resources and services.